Watkins Glen, New York
Current Conditions -  °F | °C
As of 12:53 AM on Tuesday 27 Jan 2015 (Local Time) from KELM Reporting Station
Light Snow Light Snow  
Wind Chill: 19°   Ceiling: 4700
Heat Index: 19°   Visibility: 2.5mi
Dew Point: 15°   Wind: 0mph
Humidity: 85%   Direction: NA
Pressure: 29.83"   Gusts: NA
Location:  42.38°N, 76.87°W
Report Text: KELM 270553Z AUTO 00000KT 2 1/2SM -SN BR OVC047 M07/M09 A2983 RMK AO2 SLP116 P0000 60002 T10721094 11072 21078 58012
Loading
Personal Weather Stations






























Interactive Weather Map New forecast layout! Learn more

10-Day Weather Forecast

Advertisements
Track Severe Weather on mobile